sensor_id;sensor_type;location;lat;lon;timestamp;P1;durP1;ratioP1;P2;durP2;ratioP2
54959;SDS011;40860;51.710;8.736;2023-08-08T00:00:24;6.60;;;4.20;;
54959;SDS011;40860;51.710;8.736;2023-08-08T00:04:27;9.57;;;4.85;;
54959;SDS011;40860;51.710;8.736;2023-08-08T00:08:31;6.13;;;4.15;;
54959;SDS011;40860;51.710;8.736;2023-08-08T00:12:34;4.97;;;3.95;;
54959;SDS011;40860;51.710;8.736;2023-08-08T00:16:37;7.30;;;3.92;;
54959;SDS011;40860;51.710;8.736;2023-08-08T00:20:40;7.45;;;4.30;;
54959;SDS011;40860;51.710;8.736;2023-08-08T00:24:45;7.93;;;3.80;;
54959;SDS011;40860;51.710;8.736;2023-08-08T00:28:48;5.68;;;3.67;;
54959;SDS011;40860;51.710;8.736;2023-08-08T00:32:51;6.15;;;3.55;;
54959;SDS011;40860;51.710;8.736;2023-08-08T00:36:54;6.10;;;3.60;;
54959;SDS011;40860;51.710;8.736;2023-08-08T00:40:59;4.22;;;3.25;;
54959;SDS011;40860;51.710;8.736;2023-08-08T00:45:02;6.47;;;3.67;;
54959;SDS011;40860;51.710;8.736;2023-08-08T00:49:06;5.35;;;3.25;;
54959;SDS011;40860;51.710;8.736;2023-08-08T00:53:09;5.28;;;2.88;;
54959;SDS011;40860;51.710;8.736;2023-08-08T00:57:14;6.78;;;3.35;;
54959;SDS011;40860;51.710;8.736;2023-08-08T01:01:17;6.28;;;3.47;;
54959;SDS011;40860;51.710;8.736;2023-08-08T01:05:20;4.63;;;3.28;;
54959;SDS011;40860;51.710;8.736;2023-08-08T01:09:25;5.60;;;3.03;;
54959;SDS011;40860;51.710;8.736;2023-08-08T01:13:36;6.75;;;3.13;;
54959;SDS011;40860;51.710;8.736;2023-08-08T01:17:40;3.33;;;2.75;;
54959;SDS011;40860;51.710;8.736;2023-08-08T01:21:46;4.32;;;2.60;;
54959;SDS011;40860;51.710;8.736;2023-08-08T01:25:52;5.40;;;2.60;;
54959;SDS011;40860;51.710;8.736;2023-08-08T01:29:55;4.75;;;2.53;;
54959;SDS011;40860;51.710;8.736;2023-08-08T01:33:59;3.25;;;2.85;;
54959;SDS011;40860;51.710;8.736;2023-08-08T01:38:04;2.97;;;2.40;;
54959;SDS011;40860;51.710;8.736;2023-08-08T01:42:15;2.67;;;2.40;;
54959;SDS011;40860;51.710;8.736;2023-08-08T01:46:18;3.90;;;2.33;;
54959;SDS011;40860;51.710;8.736;2023-08-08T01:50:22;6.72;;;3.10;;
54959;SDS011;40860;51.710;8.736;2023-08-08T01:54:25;3.92;;;2.65;;
54959;SDS011;40860;51.710;8.736;2023-08-08T01:58:30;2.80;;;2.60;;
54959;SDS011;40860;51.710;8.736;2023-08-08T02:02:33;3.10;;;2.78;;
54959;SDS011;40860;51.710;8.736;2023-08-08T02:06:37;6.88;;;3.20;;
54959;SDS011;40860;51.710;8.736;2023-08-08T02:10:40;3.97;;;2.70;;
54959;SDS011;40860;51.710;8.736;2023-08-08T02:14:44;4.03;;;2.80;;
54959;SDS011;40860;51.710;8.736;2023-08-08T02:18:47;3.55;;;3.17;;
54959;SDS011;40860;51.710;8.736;2023-08-08T02:22:50;3.72;;;3.15;;
54959;SDS011;40860;51.710;8.736;2023-08-08T02:26:52;5.63;;;3.22;;
54959;SDS011;40860;51.710;8.736;2023-08-08T02:30:57;4.53;;;3.10;;
54959;SDS011;40860;51.710;8.736;2023-08-08T02:35:00;3.28;;;2.97;;
54959;SDS011;40860;51.710;8.736;2023-08-08T02:39:03;3.15;;;2.78;;
54959;SDS011;40860;51.710;8.736;2023-08-08T02:43:06;3.35;;;3.05;;
54959;SDS011;40860;51.710;8.736;2023-08-08T02:47:12;6.82;;;2.88;;
54959;SDS011;40860;51.710;8.736;2023-08-08T02:51:15;3.03;;;2.67;;
54959;SDS011;40860;51.710;8.736;2023-08-08T02:55:18;2.65;;;2.38;;
54959;SDS011;40860;51.710;8.736;2023-08-08T02:59:24;3.55;;;2.35;;
54959;SDS011;40860;51.710;8.736;2023-08-08T03:03:28;3.22;;;2.35;;
54959;SDS011;40860;51.710;8.736;2023-08-08T03:07:31;4.47;;;2.80;;
54959;SDS011;40860;51.710;8.736;2023-08-08T03:11:35;3.67;;;2.95;;
54959;SDS011;40860;51.710;8.736;2023-08-08T03:15:40;3.35;;;2.78;;
54959;SDS011;40860;51.710;8.736;2023-08-08T03:19:45;3.08;;;2.78;;
54959;SDS011;40860;51.710;8.736;2023-08-08T03:23:49;3.38;;;2.47;;
54959;SDS011;40860;51.710;8.736;2023-08-08T03:27:52;3.00;;;2.50;;
54959;SDS011;40860;51.710;8.736;2023-08-08T03:31:55;4.90;;;2.53;;
54959;SDS011;40860;51.710;8.736;2023-08-08T03:36:02;3.60;;;2.70;;
54959;SDS011;40860;51.710;8.736;2023-08-08T03:40:07;2.85;;;2.53;;
54959;SDS011;40860;51.710;8.736;2023-08-08T03:44:10;5.32;;;2.60;;
54959;SDS011;40860;51.710;8.736;2023-08-08T03:48:13;3.05;;;2.55;;
54959;SDS011;40860;51.710;8.736;2023-08-08T03:52:17;5.25;;;3.13;;
54959;SDS011;40860;51.710;8.736;2023-08-08T03:56:20;4.03;;;2.95;;
54959;SDS011;40860;51.710;8.736;2023-08-08T04:00:23;5.45;;;3.30;;
54959;SDS011;40860;51.710;8.736;2023-08-08T04:04:26;5.03;;;3.30;;
54959;SDS011;40860;51.710;8.736;2023-08-08T04:08:31;6.72;;;3.70;;
54959;SDS011;40860;51.710;8.736;2023-08-08T04:12:34;5.32;;;3.78;;
54959;SDS011;40860;51.710;8.736;2023-08-08T04:16:38;7.57;;;3.78;;
54959;SDS011;40860;51.710;8.736;2023-08-08T04:20:41;3.47;;;3.17;;
54959;SDS011;40860;51.710;8.736;2023-08-08T04:24:45;4.05;;;3.47;;
54959;SDS011;40860;51.710;8.736;2023-08-08T04:28:48;7.22;;;3.50;;
54959;SDS011;40860;51.710;8.736;2023-08-08T04:32:51;6.18;;;3.33;;
54959;SDS011;40860;51.710;8.736;2023-08-08T04:36:55;3.47;;;3.17;;
54959;SDS011;40860;51.710;8.736;2023-08-08T04:40:59;5.05;;;3.00;;
54959;SDS011;40860;51.710;8.736;2023-08-08T04:45:04;7.57;;;3.40;;
54959;SDS011;40860;51.710;8.736;2023-08-08T04:49:09;5.22;;;3.28;;
54959;SDS011;40860;51.710;8.736;2023-08-08T04:53:12;6.55;;;3.90;;
54959;SDS011;40860;51.710;8.736;2023-08-08T04:57:16;4.40;;;3.50;;
54959;SDS011;40860;51.710;8.736;2023-08-08T05:01:19;4.55;;;3.83;;
54959;SDS011;40860;51.710;8.736;2023-08-08T05:05:23;5.05;;;3.72;;
54959;SDS011;40860;51.710;8.736;2023-08-08T05:09:26;6.25;;;3.60;;
54959;SDS011;40860;51.710;8.736;2023-08-08T05:13:31;7.70;;;3.90;;
54959;SDS011;40860;51.710;8.736;2023-08-08T05:17:34;5.60;;;4.05;;
54959;SDS011;40860;51.710;8.736;2023-08-08T05:21:37;7.03;;;4.22;;
54959;SDS011;40860;51.710;8.736;2023-08-08T05:25:41;5.50;;;4.22;;
54959;SDS011;40860;51.710;8.736;2023-08-08T05:29:46;4.85;;;3.88;;
54959;SDS011;40860;51.710;8.736;2023-08-08T05:33:49;4.25;;;3.53;;
54959;SDS011;40860;51.710;8.736;2023-08-08T05:37:52;7.25;;;3.85;;
54959;SDS011;40860;51.710;8.736;2023-08-08T05:41:56;5.35;;;3.72;;
54959;SDS011;40860;51.710;8.736;2023-08-08T05:46:00;6.72;;;3.67;;
54959;SDS011;40860;51.710;8.736;2023-08-08T05:50:04;5.25;;;3.60;;
54959;SDS011;40860;51.710;8.736;2023-08-08T05:54:07;6.20;;;3.85;;
54959;SDS011;40860;51.710;8.736;2023-08-08T05:58:11;5.20;;;3.47;;
54959;SDS011;40860;51.710;8.736;2023-08-08T06:02:15;6.32;;;3.90;;
54959;SDS011;40860;51.710;8.736;2023-08-08T06:06:18;6.70;;;4.13;;
54959;SDS011;40860;51.710;8.736;2023-08-08T06:10:21;5.55;;;3.75;;
54959;SDS011;40860;51.710;8.736;2023-08-08T06:14:24;6.50;;;4.25;;
54959;SDS011;40860;51.710;8.736;2023-08-08T06:18:28;7.40;;;4.32;;
54959;SDS011;40860;51.710;8.736;2023-08-08T06:22:31;11.48;;;5.38;;
54959;SDS011;40860;51.710;8.736;2023-08-08T06:26:34;7.05;;;6.00;;
54959;SDS011;40860;51.710;8.736;2023-08-08T06:30:37;14.50;;;6.53;;
54959;SDS011;40860;51.710;8.736;2023-08-08T06:34:41;10.75;;;7.40;;
54959;SDS011;40860;51.710;8.736;2023-08-08T06:38:44;11.18;;;7.28;;
54959;SDS011;40860;51.710;8.736;2023-08-08T06:42:47;11.35;;;7.47;;
54959;SDS011;40860;51.710;8.736;2023-08-08T06:46:50;11.60;;;7.82;;
54959;SDS011;40860;51.710;8.736;2023-08-08T06:50:55;14.65;;;7.70;;
54959;SDS011;40860;51.710;8.736;2023-08-08T06:54:58;14.50;;;8.52;;
54959;SDS011;40860;51.710;8.736;2023-08-08T06:59:00;12.73;;;7.85;;
54959;SDS011;40860;51.710;8.736;2023-08-08T07:03:04;15.10;;;8.23;;
54959;SDS011;40860;51.710;8.736;2023-08-08T07:07:09;14.13;;;9.35;;
54959;SDS011;40860;51.710;8.736;2023-08-08T07:11:12;12.10;;;9.13;;
54959;SDS011;40860;51.710;8.736;2023-08-08T07:15:15;10.77;;;9.32;;
54959;SDS011;40860;51.710;8.736;2023-08-08T07:19:18;14.63;;;10.02;;
54959;SDS011;40860;51.710;8.736;2023-08-08T07:23:22;12.85;;;9.25;;
54959;SDS011;40860;51.710;8.736;2023-08-08T07:27:26;12.25;;;8.98;;
54959;SDS011;40860;51.710;8.736;2023-08-08T07:31:29;13.20;;;10.02;;
54959;SDS011;40860;51.710;8.736;2023-08-08T07:35:32;14.48;;;9.70;;
54959;SDS011;40860;51.710;8.736;2023-08-08T07:39:36;13.27;;;9.13;;
54959;SDS011;40860;51.710;8.736;2023-08-08T07:43:39;13.55;;;9.48;;
54959;SDS011;40860;51.710;8.736;2023-08-08T07:47:42;18.30;;;10.50;;
54959;SDS011;40860;51.710;8.736;2023-08-08T07:51:45;17.13;;;10.32;;
54959;SDS011;40860;51.710;8.736;2023-08-08T07:55:50;13.88;;;10.02;;
54959;SDS011;40860;51.710;8.736;2023-08-08T07:59:53;15.80;;;10.43;;
54959;SDS011;40860;51.710;8.736;2023-08-08T08:03:56;16.55;;;11.63;;
54959;SDS011;40860;51.710;8.736;2023-08-08T08:07:59;16.02;;;10.38;;
54959;SDS011;40860;51.710;8.736;2023-08-08T08:12:04;17.42;;;10.20;;
54959;SDS011;40860;51.710;8.736;2023-08-08T08:16:07;13.77;;;10.38;;
54959;SDS011;40860;51.710;8.736;2023-08-08T08:20:10;19.48;;;10.52;;
54959;SDS011;40860;51.710;8.736;2023-08-08T08:24:14;15.95;;;9.85;;
54959;SDS011;40860;51.710;8.736;2023-08-08T08:28:20;15.40;;;8.98;;
54959;SDS011;40860;51.710;8.736;2023-08-08T08:32:23;14.30;;;9.50;;
54959;SDS011;40860;51.710;8.736;2023-08-08T08:36:26;13.63;;;9.00;;
54959;SDS011;40860;51.710;8.736;2023-08-08T08:40:29;9.98;;;7.90;;
54959;SDS011;40860;51.710;8.736;2023-08-08T08:44:37;10.18;;;8.50;;
54959;SDS011;40860;51.710;8.736;2023-08-08T08:48:41;13.32;;;7.32;;
54959;SDS011;40860;51.710;8.736;2023-08-08T08:52:45;13.13;;;7.53;;
54959;SDS011;40860;51.710;8.736;2023-08-08T08:56:48;12.20;;;7.72;;
54959;SDS011;40860;51.710;8.736;2023-08-08T09:00:52;14.35;;;7.53;;
54959;SDS011;40860;51.710;8.736;2023-08-08T09:04:56;10.95;;;6.35;;
54959;SDS011;40860;51.710;8.736;2023-08-08T09:09:00;11.57;;;6.95;;
54959;SDS011;40860;51.710;8.736;2023-08-08T09:13:16;9.63;;;5.78;;
54959;SDS011;40860;51.710;8.736;2023-08-08T09:17:21;11.02;;;5.65;;
54959;SDS011;40860;51.710;8.736;2023-08-08T09:21:34;10.20;;;5.47;;
54959;SDS011;40860;51.710;8.736;2023-08-08T09:25:37;10.60;;;5.30;;
54959;SDS011;40860;51.710;8.736;2023-08-08T09:29:41;7.80;;;4.88;;
54959;SDS011;40860;51.710;8.736;2023-08-08T09:33:45;9.73;;;4.65;;
54959;SDS011;40860;51.710;8.736;2023-08-08T09:37:52;6.32;;;4.50;;
54959;SDS011;40860;51.710;8.736;2023-08-08T09:41:55;6.15;;;3.90;;
54959;SDS011;40860;51.710;8.736;2023-08-08T09:45:58;4.93;;;3.83;;
54959;SDS011;40860;51.710;8.736;2023-08-08T09:50:03;5.03;;;4.40;;
54959;SDS011;40860;51.710;8.736;2023-08-08T09:54:07;5.47;;;3.78;;
54959;SDS011;40860;51.710;8.736;2023-08-08T09:58:10;6.70;;;3.70;;
54959;SDS011;40860;51.710;8.736;2023-08-08T10:02:15;6.18;;;3.65;;
54959;SDS011;40860;51.710;8.736;2023-08-08T10:06:19;7.45;;;3.75;;
54959;SDS011;40860;51.710;8.736;2023-08-08T10:10:22;4.43;;;3.40;;
54959;SDS011;40860;51.710;8.736;2023-08-08T10:14:28;7.70;;;3.85;;
54959;SDS011;40860;51.710;8.736;2023-08-08T10:18:31;6.55;;;3.90;;
54959;SDS011;40860;51.710;8.736;2023-08-08T10:22:36;5.50;;;4.10;;
54959;SDS011;40860;51.710;8.736;2023-08-08T10:26:53;5.03;;;4.10;;
54959;SDS011;40860;51.710;8.736;2023-08-08T10:31:00;8.85;;;4.20;;
54959;SDS011;40860;51.710;8.736;2023-08-08T10:35:06;6.65;;;4.43;;
54959;SDS011;40860;51.710;8.736;2023-08-08T10:39:12;6.82;;;4.70;;
54959;SDS011;40860;51.710;8.736;2023-08-08T10:43:24;5.95;;;4.05;;
54959;SDS011;40860;51.710;8.736;2023-08-08T10:47:30;6.93;;;4.40;;
54959;SDS011;40860;51.710;8.736;2023-08-08T10:51:37;6.43;;;4.53;;
54959;SDS011;40860;51.710;8.736;2023-08-08T10:55:42;4.38;;;3.50;;
54959;SDS011;40860;51.710;8.736;2023-08-08T10:59:46;6.65;;;4.43;;
54959;SDS011;40860;51.710;8.736;2023-08-08T11:03:50;7.25;;;3.97;;
54959;SDS011;40860;51.710;8.736;2023-08-08T11:07:53;9.95;;;4.10;;
54959;SDS011;40860;51.710;8.736;2023-08-08T11:11:58;5.20;;;3.58;;
54959;SDS011;40860;51.710;8.736;2023-08-08T11:16:02;6.78;;;3.65;;
54959;SDS011;40860;51.710;8.736;2023-08-08T11:20:05;5.82;;;3.40;;
54959;SDS011;40860;51.710;8.736;2023-08-08T11:24:09;5.45;;;3.20;;
54959;SDS011;40860;51.710;8.736;2023-08-08T11:28:15;4.50;;;2.60;;
54959;SDS011;40860;51.710;8.736;2023-08-08T11:32:18;6.38;;;2.70;;
54959;SDS011;40860;51.710;8.736;2023-08-08T11:36:21;3.22;;;2.90;;
54959;SDS011;40860;51.710;8.736;2023-08-08T11:40:25;5.07;;;3.33;;
54959;SDS011;40860;51.710;8.736;2023-08-08T11:44:31;7.72;;;3.00;;
54959;SDS011;40860;51.710;8.736;2023-08-08T11:48:37;5.18;;;2.78;;
54959;SDS011;40860;51.710;8.736;2023-08-08T11:52:41;3.05;;;2.20;;
54959;SDS011;40860;51.710;8.736;2023-08-08T11:56:45;4.35;;;2.08;;
54959;SDS011;40860;51.710;8.736;2023-08-08T12:00:50;5.65;;;2.67;;
54959;SDS011;40860;51.710;8.736;2023-08-08T12:04:53;7.80;;;2.72;;
54959;SDS011;40860;51.710;8.736;2023-08-08T12:08:56;4.57;;;2.60;;
54959;SDS011;40860;51.710;8.736;2023-08-08T12:12:59;8.93;;;2.50;;
54959;SDS011;40860;51.710;8.736;2023-08-08T12:17:03;3.92;;;2.42;;
54959;SDS011;40860;51.710;8.736;2023-08-08T12:21:07;4.10;;;2.50;;
54959;SDS011;40860;51.710;8.736;2023-08-08T12:25:11;5.35;;;2.40;;
54959;SDS011;40860;51.710;8.736;2023-08-08T12:29:14;3.83;;;1.98;;
54959;SDS011;40860;51.710;8.736;2023-08-08T12:33:18;5.05;;;2.38;;
54959;SDS011;40860;51.710;8.736;2023-08-08T12:37:21;5.10;;;2.47;;
54959;SDS011;40860;51.710;8.736;2023-08-08T12:41:25;3.42;;;2.70;;
54959;SDS011;40860;51.710;8.736;2023-08-08T12:45:30;5.53;;;2.67;;
54959;SDS011;40860;51.710;8.736;2023-08-08T12:49:35;3.95;;;2.45;;
54959;SDS011;40860;51.710;8.736;2023-08-08T12:53:39;5.97;;;2.55;;
54959;SDS011;40860;51.710;8.736;2023-08-08T12:57:43;8.45;;;2.78;;
54959;SDS011;40860;51.710;8.736;2023-08-08T13:01:46;6.90;;;2.42;;
54959;SDS011;40860;51.710;8.736;2023-08-08T13:05:50;5.07;;;2.17;;
54959;SDS011;40860;51.710;8.736;2023-08-08T13:09:53;3.90;;;2.10;;
54959;SDS011;40860;51.710;8.736;2023-08-08T13:13:56;4.82;;;2.25;;
54959;SDS011;40860;51.710;8.736;2023-08-08T13:17:59;6.15;;;2.40;;
54959;SDS011;40860;51.710;8.736;2023-08-08T13:22:03;3.65;;;2.03;;
54959;SDS011;40860;51.710;8.736;2023-08-08T13:26:06;4.68;;;2.80;;
54959;SDS011;40860;51.710;8.736;2023-08-08T13:30:10;5.90;;;2.65;;
54959;SDS011;40860;51.710;8.736;2023-08-08T13:34:13;4.05;;;2.53;;
54959;SDS011;40860;51.710;8.736;2023-08-08T13:38:18;3.40;;;2.15;;
54959;SDS011;40860;51.710;8.736;2023-08-08T13:42:21;2.35;;;1.95;;
54959;SDS011;40860;51.710;8.736;2023-08-08T13:46:24;3.47;;;2.13;;
54959;SDS011;40860;51.710;8.736;2023-08-08T13:50:27;5.70;;;2.47;;
54959;SDS011;40860;51.710;8.736;2023-08-08T13:54:32;2.30;;;1.80;;
54959;SDS011;40860;51.710;8.736;2023-08-08T13:58:35;3.65;;;2.15;;
54959;SDS011;40860;51.710;8.736;2023-08-08T14:02:38;3.72;;;2.42;;
54959;SDS011;40860;51.710;8.736;2023-08-08T14:06:41;5.43;;;2.55;;
54959;SDS011;40860;51.710;8.736;2023-08-08T14:10:45;7.03;;;2.50;;
54959;SDS011;40860;51.710;8.736;2023-08-08T14:14:49;4.35;;;2.65;;
54959;SDS011;40860;51.710;8.736;2023-08-08T14:18:52;3.05;;;2.15;;
54959;SDS011;40860;51.710;8.736;2023-08-08T14:22:54;3.03;;;2.10;;
54959;SDS011;40860;51.710;8.736;2023-08-08T14:26:59;2.65;;;2.22;;
54959;SDS011;40860;51.710;8.736;2023-08-08T14:31:02;6.38;;;2.08;;
54959;SDS011;40860;51.710;8.736;2023-08-08T14:35:07;3.30;;;2.20;;
54959;SDS011;40860;51.710;8.736;2023-08-08T14:39:11;5.90;;;2.25;;
54959;SDS011;40860;51.710;8.736;2023-08-08T14:43:16;9.90;;;2.90;;
54959;SDS011;40860;51.710;8.736;2023-08-08T14:47:19;4.80;;;2.10;;
54959;SDS011;40860;51.710;8.736;2023-08-08T14:51:22;6.20;;;2.10;;
54959;SDS011;40860;51.710;8.736;2023-08-08T14:55:26;3.30;;;1.90;;
54959;SDS011;40860;51.710;8.736;2023-08-08T14:59:30;5.38;;;2.30;;
54959;SDS011;40860;51.710;8.736;2023-08-08T15:03:33;1.88;;;1.67;;
54959;SDS011;40860;51.710;8.736;2023-08-08T15:07:36;3.75;;;1.80;;
54959;SDS011;40860;51.710;8.736;2023-08-08T15:11:39;4.72;;;1.90;;
54959;SDS011;40860;51.710;8.736;2023-08-08T15:15:43;4.40;;;1.90;;
54959;SDS011;40860;51.710;8.736;2023-08-08T15:19:47;5.75;;;2.40;;
54959;SDS011;40860;51.710;8.736;2023-08-08T15:23:50;5.75;;;2.50;;
54959;SDS011;40860;51.710;8.736;2023-08-08T15:27:53;2.75;;;2.33;;
54959;SDS011;40860;51.710;8.736;2023-08-08T15:31:58;4.45;;;2.40;;
54959;SDS011;40860;51.710;8.736;2023-08-08T15:36:01;6.50;;;2.80;;
54959;SDS011;40860;51.710;8.736;2023-08-08T15:40:04;3.75;;;2.63;;
54959;SDS011;40860;51.710;8.736;2023-08-08T15:44:08;5.30;;;2.53;;
54959;SDS011;40860;51.710;8.736;2023-08-08T15:48:12;7.10;;;2.58;;
54959;SDS011;40860;51.710;8.736;2023-08-08T15:52:15;4.95;;;2.72;;
54959;SDS011;40860;51.710;8.736;2023-08-08T15:56:18;3.80;;;2.40;;
54959;SDS011;40860;51.710;8.736;2023-08-08T16:00:22;4.65;;;2.50;;
54959;SDS011;40860;51.710;8.736;2023-08-08T16:04:26;3.78;;;2.47;;
54959;SDS011;40860;51.710;8.736;2023-08-08T16:08:29;6.28;;;2.03;;
54959;SDS011;40860;51.710;8.736;2023-08-08T16:12:33;4.75;;;1.95;;
54959;SDS011;40860;51.710;8.736;2023-08-08T16:16:36;6.22;;;2.15;;
54959;SDS011;40860;51.710;8.736;2023-08-08T16:20:41;2.92;;;2.10;;
54959;SDS011;40860;51.710;8.736;2023-08-08T16:24:44;5.22;;;2.40;;
54959;SDS011;40860;51.710;8.736;2023-08-08T16:28:47;5.78;;;3.10;;
54959;SDS011;40860;51.710;8.736;2023-08-08T16:32:50;4.22;;;2.13;;
54959;SDS011;40860;51.710;8.736;2023-08-08T16:36:54;2.90;;;1.90;;
54959;SDS011;40860;51.710;8.736;2023-08-08T16:40:57;2.72;;;2.13;;
54959;SDS011;40860;51.710;8.736;2023-08-08T16:45:00;3.65;;;2.00;;
54959;SDS011;40860;51.710;8.736;2023-08-08T16:49:05;2.72;;;2.10;;
54959;SDS011;40860;51.710;8.736;2023-08-08T16:53:10;2.83;;;1.95;;
54959;SDS011;40860;51.710;8.736;2023-08-08T16:57:13;2.20;;;1.73;;
54959;SDS011;40860;51.710;8.736;2023-08-08T17:01:16;2.67;;;1.90;;
54959;SDS011;40860;51.710;8.736;2023-08-08T17:05:19;2.65;;;1.80;;
54959;SDS011;40860;51.710;8.736;2023-08-08T17:09:24;3.17;;;1.60;;
54959;SDS011;40860;51.710;8.736;2023-08-08T17:13:28;3.78;;;1.88;;
54959;SDS011;40860;51.710;8.736;2023-08-08T17:17:33;3.22;;;1.60;;
54959;SDS011;40860;51.710;8.736;2023-08-08T17:21:36;5.80;;;2.42;;
54959;SDS011;40860;51.710;8.736;2023-08-08T17:25:42;4.35;;;1.90;;
54959;SDS011;40860;51.710;8.736;2023-08-08T17:29:46;3.58;;;1.65;;
54959;SDS011;40860;51.710;8.736;2023-08-08T17:33:51;3.60;;;1.52;;
54959;SDS011;40860;51.710;8.736;2023-08-08T17:37:56;5.45;;;1.80;;
54959;SDS011;40860;51.710;8.736;2023-08-08T17:42:03;3.53;;;1.50;;
54959;SDS011;40860;51.710;8.736;2023-08-08T17:46:07;2.00;;;1.38;;
54959;SDS011;40860;51.710;8.736;2023-08-08T17:50:10;3.97;;;1.73;;
54959;SDS011;40860;51.710;8.736;2023-08-08T17:54:14;2.83;;;1.08;;
54959;SDS011;40860;51.710;8.736;2023-08-08T17:58:19;2.55;;;1.58;;
54959;SDS011;40860;51.710;8.736;2023-08-08T18:02:22;1.10;;;1.00;;
54959;SDS011;40860;51.710;8.736;2023-08-08T18:06:26;2.63;;;1.40;;
54959;SDS011;40860;51.710;8.736;2023-08-08T18:10:31;1.50;;;1.02;;
54959;SDS011;40860;51.710;8.736;2023-08-08T18:14:37;2.08;;;1.00;;
54959;SDS011;40860;51.710;8.736;2023-08-08T18:18:41;2.63;;;0.98;;
54959;SDS011;40860;51.710;8.736;2023-08-08T18:22:43;2.63;;;1.40;;
54959;SDS011;40860;51.710;8.736;2023-08-08T18:26:46;4.00;;;1.23;;
54959;SDS011;40860;51.710;8.736;2023-08-08T18:30:51;2.25;;;1.20;;
54959;SDS011;40860;51.710;8.736;2023-08-08T18:34:54;2.17;;;1.02;;
54959;SDS011;40860;51.710;8.736;2023-08-08T18:38:57;2.25;;;1.30;;
54959;SDS011;40860;51.710;8.736;2023-08-08T18:43:00;1.38;;;1.23;;
54959;SDS011;40860;51.710;8.736;2023-08-08T18:47:05;1.80;;;1.27;;
54959;SDS011;40860;51.710;8.736;2023-08-08T18:51:08;2.67;;;1.20;;
54959;SDS011;40860;51.710;8.736;2023-08-08T18:55:11;2.60;;;1.10;;
54959;SDS011;40860;51.710;8.736;2023-08-08T18:59:14;2.67;;;1.10;;
54959;SDS011;40860;51.710;8.736;2023-08-08T19:03:18;1.77;;;0.90;;
54959;SDS011;40860;51.710;8.736;2023-08-08T19:07:21;1.95;;;1.27;;
54959;SDS011;40860;51.710;8.736;2023-08-08T19:11:24;1.40;;;1.25;;
54959;SDS011;40860;51.710;8.736;2023-08-08T19:15:30;1.27;;;0.85;;
54959;SDS011;40860;51.710;8.736;2023-08-08T19:19:35;2.10;;;1.42;;
54959;SDS011;40860;51.710;8.736;2023-08-08T19:23:38;2.35;;;1.38;;
54959;SDS011;40860;51.710;8.736;2023-08-08T19:27:42;4.90;;;1.30;;
54959;SDS011;40860;51.710;8.736;2023-08-08T19:31:50;2.40;;;1.77;;
54959;SDS011;40860;51.710;8.736;2023-08-08T19:35:54;4.15;;;2.33;;
54959;SDS011;40860;51.710;8.736;2023-08-08T19:39:57;3.50;;;2.28;;
54959;SDS011;40860;51.710;8.736;2023-08-08T19:44:00;4.07;;;2.25;;
54959;SDS011;40860;51.710;8.736;2023-08-08T19:48:03;4.13;;;2.20;;
54959;SDS011;40860;51.710;8.736;2023-08-08T19:52:08;5.63;;;2.22;;
54959;SDS011;40860;51.710;8.736;2023-08-08T19:56:11;4.90;;;2.72;;
54959;SDS011;40860;51.710;8.736;2023-08-08T20:00:14;3.03;;;2.00;;
54959;SDS011;40860;51.710;8.736;2023-08-08T20:04:17;5.28;;;2.42;;
54959;SDS011;40860;51.710;8.736;2023-08-08T20:08:21;3.05;;;2.00;;
54959;SDS011;40860;51.710;8.736;2023-08-08T20:12:24;3.67;;;2.17;;
54959;SDS011;40860;51.710;8.736;2023-08-08T20:16:27;5.45;;;2.22;;
54959;SDS011;40860;51.710;8.736;2023-08-08T20:20:31;3.72;;;2.10;;
54959;SDS011;40860;51.710;8.736;2023-08-08T20:24:35;3.13;;;2.47;;
54959;SDS011;40860;51.710;8.736;2023-08-08T20:28:38;3.60;;;1.85;;
54959;SDS011;40860;51.710;8.736;2023-08-08T20:32:42;4.15;;;2.17;;
54959;SDS011;40860;51.710;8.736;2023-08-08T20:36:45;6.38;;;2.22;;
54959;SDS011;40860;51.710;8.736;2023-08-08T20:40:50;2.95;;;2.15;;
54959;SDS011;40860;51.710;8.736;2023-08-08T20:44:53;3.78;;;2.17;;
54959;SDS011;40860;51.710;8.736;2023-08-08T20:48:56;4.00;;;2.15;;
54959;SDS011;40860;51.710;8.736;2023-08-08T20:52:59;4.20;;;2.20;;
54959;SDS011;40860;51.710;8.736;2023-08-08T20:57:03;5.15;;;3.38;;
54959;SDS011;40860;51.710;8.736;2023-08-08T21:01:06;3.67;;;2.75;;
54959;SDS011;40860;51.710;8.736;2023-08-08T21:05:09;5.53;;;2.67;;
54959;SDS011;40860;51.710;8.736;2023-08-08T21:09:13;3.25;;;2.28;;
54959;SDS011;40860;51.710;8.736;2023-08-08T21:13:20;4.68;;;3.25;;
54959;SDS011;40860;51.710;8.736;2023-08-08T21:17:23;3.53;;;2.58;;
54959;SDS011;40860;51.710;8.736;2023-08-08T21:21:25;4.40;;;2.92;;
54959;SDS011;40860;51.710;8.736;2023-08-08T21:25:28;3.55;;;2.83;;
54959;SDS011;40860;51.710;8.736;2023-08-08T21:29:33;3.53;;;3.22;;
54959;SDS011;40860;51.710;8.736;2023-08-08T21:33:36;5.57;;;3.70;;
54959;SDS011;40860;51.710;8.736;2023-08-08T21:37:39;3.28;;;3.08;;
54959;SDS011;40860;51.710;8.736;2023-08-08T21:41:47;3.97;;;3.67;;
54959;SDS011;40860;51.710;8.736;2023-08-08T21:45:51;4.00;;;3.70;;
54959;SDS011;40860;51.710;8.736;2023-08-08T21:49:56;5.32;;;3.95;;
54959;SDS011;40860;51.710;8.736;2023-08-08T21:53:59;4.25;;;3.85;;
54959;SDS011;40860;51.710;8.736;2023-08-08T21:58:03;4.68;;;4.13;;
54959;SDS011;40860;51.710;8.736;2023-08-08T22:02:12;4.72;;;4.32;;
54959;SDS011;40860;51.710;8.736;2023-08-08T22:06:15;4.85;;;4.38;;
54959;SDS011;40860;51.710;8.736;2023-08-08T22:10:19;5.75;;;4.30;;
54959;SDS011;40860;51.710;8.736;2023-08-08T22:14:22;5.85;;;4.50;;
54959;SDS011;40860;51.710;8.736;2023-08-08T22:18:26;4.65;;;4.03;;
54959;SDS011;40860;51.710;8.736;2023-08-08T22:22:29;7.20;;;4.57;;
54959;SDS011;40860;51.710;8.736;2023-08-08T22:26:33;7.53;;;4.60;;
54959;SDS011;40860;51.710;8.736;2023-08-08T22:30:36;5.72;;;4.57;;
54959;SDS011;40860;51.710;8.736;2023-08-08T22:34:40;5.25;;;4.75;;
54959;SDS011;40860;51.710;8.736;2023-08-08T22:38:44;6.35;;;5.32;;
54959;SDS011;40860;51.710;8.736;2023-08-08T22:42:47;7.32;;;5.50;;
54959;SDS011;40860;51.710;8.736;2023-08-08T22:46:52;6.53;;;5.65;;
54959;SDS011;40860;51.710;8.736;2023-08-08T22:50:57;7.80;;;6.63;;
54959;SDS011;40860;51.710;8.736;2023-08-08T22:54:59;7.57;;;6.75;;
54959;SDS011;40860;51.710;8.736;2023-08-08T22:59:02;8.98;;;7.28;;
54959;SDS011;40860;51.710;8.736;2023-08-08T23:03:05;8.38;;;7.57;;
54959;SDS011;40860;51.710;8.736;2023-08-08T23:07:10;8.93;;;7.55;;
54959;SDS011;40860;51.710;8.736;2023-08-08T23:11:13;8.32;;;7.53;;
54959;SDS011;40860;51.710;8.736;2023-08-08T23:15:16;8.30;;;7.60;;
54959;SDS011;40860;51.710;8.736;2023-08-08T23:19:19;10.13;;;8.32;;
54959;SDS011;40860;51.710;8.736;2023-08-08T23:23:24;9.68;;;8.68;;
54959;SDS011;40860;51.710;8.736;2023-08-08T23:27:27;9.93;;;8.77;;
54959;SDS011;40860;51.710;8.736;2023-08-08T23:31:31;9.57;;;8.68;;
54959;SDS011;40860;51.710;8.736;2023-08-08T23:35:35;10.27;;;9.10;;
54959;SDS011;40860;51.710;8.736;2023-08-08T23:39:39;10.43;;;9.38;;
54959;SDS011;40860;51.710;8.736;2023-08-08T23:43:42;11.38;;;9.57;;
54959;SDS011;40860;51.710;8.736;2023-08-08T23:47:45;11.38;;;9.18;;
54959;SDS011;40860;51.710;8.736;2023-08-08T23:51:48;11.80;;;10.50;;
54959;SDS011;40860;51.710;8.736;2023-08-08T23:55:52;9.90;;;8.90;;
54959;SDS011;40860;51.710;8.736;2023-08-08T23:59:55;8.27;;;7.47;;
